createdAt,value
2023-05-21T00:02:21.619Z,19.44
2023-05-21T00:05:45.856Z,19.40
2023-05-21T00:08:49.478Z,19.46
2023-05-21T00:11:55.427Z,19.41
2023-05-21T00:15:01.943Z,19.55
2023-05-21T00:18:18.819Z,19.54
2023-05-21T00:21:24.710Z,19.51
2023-05-21T00:24:34.443Z,19.58
2023-05-21T00:27:41.040Z,19.49
2023-05-21T00:30:47.881Z,19.39
2023-05-21T00:33:51.243Z,19.40
2023-05-21T00:36:58.097Z,19.44
2023-05-21T00:40:19.782Z,19.35
2023-05-21T00:43:40.738Z,19.30
2023-05-21T00:47:03.817Z,18.92
2023-05-21T00:50:08.230Z,18.71
2023-05-21T00:53:12.035Z,18.68
2023-05-21T00:56:22.323Z,18.60
2023-05-21T00:59:29.024Z,18.66
2023-05-21T01:02:42.323Z,18.67
2023-05-21T01:05:47.079Z,18.52
2023-05-21T01:09:03.900Z,18.42
2023-05-21T01:12:09.011Z,18.58
2023-05-21T01:15:13.506Z,18.62
2023-05-21T01:18:23.393Z,18.65
2023-05-21T01:21:37.591Z,18.65
2023-05-21T01:24:57.126Z,18.59
2023-05-21T01:28:13.363Z,18.43
2023-05-21T01:31:30.508Z,18.40
2023-05-21T01:35:00.023Z,18.38
2023-05-21T01:38:14.722Z,18.42
2023-05-21T01:41:22.494Z,18.42
2023-05-21T01:44:27.434Z,18.45
2023-05-21T01:47:40.236Z,18.38
2023-05-21T01:51:03.941Z,18.39
2023-05-21T01:54:25.012Z,18.25
2023-05-21T01:57:39.683Z,18.17
2023-05-21T02:00:57.080Z,18.20
2023-05-21T02:04:00.131Z,18.19
2023-05-21T02:07:10.405Z,18.01
2023-05-21T02:10:14.439Z,18.15
2023-05-21T02:13:26.502Z,18.08
2023-05-21T02:16:30.614Z,17.96
2023-05-21T02:19:48.934Z,17.97
2023-05-21T02:23:07.979Z,17.90
2023-05-21T02:26:24.234Z,17.83
2023-05-21T02:29:33.680Z,17.82
2023-05-21T02:32:45.184Z,17.74
2023-05-21T02:35:53.373Z,17.79
2023-05-21T02:39:13.417Z,17.84
2023-05-21T02:42:35.125Z,17.79
2023-05-21T02:45:44.483Z,17.78
2023-05-21T02:48:48.699Z,17.77
2023-05-21T02:51:55.709Z,17.73
2023-05-21T02:55:02.328Z,17.73
2023-05-21T02:58:06.886Z,17.69
2023-05-21T03:01:11.226Z,17.70
2023-05-21T03:04:29.537Z,17.72
2023-05-21T03:07:50.590Z,17.54
2023-05-21T03:11:06.842Z,17.67
2023-05-21T03:14:23.665Z,17.72
2023-05-21T03:17:27.548Z,17.52
2023-05-21T03:20:33.557Z,17.49
2023-05-21T03:23:41.884Z,17.57
2023-05-21T03:26:45.245Z,17.41
2023-05-21T03:29:49.128Z,17.42
2023-05-21T03:33:00.058Z,17.46
2023-05-21T03:36:23.648Z,17.41
2023-05-21T03:39:53.524Z,17.58
2023-05-21T03:42:58.909Z,17.72
2023-05-21T03:46:03.765Z,17.87
2023-05-21T03:49:16.164Z,17.91
2023-05-21T03:52:32.972Z,17.99
2023-05-21T03:55:40.771Z,17.96
2023-05-21T03:58:47.230Z,18.03
2023-05-21T04:01:51.158Z,18.08
2023-05-21T04:04:56.488Z,18.16
2023-05-21T04:08:01.936Z,18.26
2023-05-21T04:11:05.642Z,18.26
2023-05-21T04:14:28.531Z,18.33
2023-05-21T04:17:52.537Z,18.43
2023-05-21T04:21:02.630Z,18.59
2023-05-21T04:24:09.890Z,18.58
2023-05-21T04:27:27.130Z,18.53
2023-05-21T04:30:30.968Z,18.66
2023-05-21T04:33:42.627Z,18.73
2023-05-21T04:37:05.463Z,18.86
2023-05-21T04:40:32.582Z,18.75
2023-05-21T04:43:44.151Z,18.64
2023-05-21T04:47:09.473Z,18.81
2023-05-21T04:50:30.876Z,18.86
2023-05-21T04:53:35.980Z,18.87
2023-05-21T04:56:39.638Z,18.92
2023-05-21T04:59:49.339Z,18.91
2023-05-21T05:02:53.308Z,18.97
2023-05-21T05:05:58.188Z,19.10
2023-05-21T05:09:04.943Z,19.16
2023-05-21T05:12:08.641Z,19.05
2023-05-21T05:15:11.838Z,19.17
2023-05-21T05:18:27.411Z,19.18
2023-05-21T05:21:49.527Z,19.23
2023-05-21T05:25:05.397Z,19.23
2023-05-21T05:28:17.730Z,19.13
2023-05-21T05:31:34.014Z,19.38
2023-05-21T05:34:51.513Z,19.51
2023-05-21T05:38:08.252Z,19.71
2023-05-21T05:41:22.826Z,20.02
2023-05-21T05:44:30.791Z,20.25
2023-05-21T05:47:43.886Z,20.47
2023-05-21T05:50:48.773Z,20.76
2023-05-21T05:53:59.768Z,20.77
2023-05-21T05:57:17.956Z,20.84
2023-05-21T06:00:33.340Z,20.98
2023-05-21T06:03:50.272Z,21.16
2023-05-21T06:07:26.293Z,21.18
2023-05-21T06:10:51.254Z,21.16
2023-05-21T06:13:54.500Z,21.40
2023-05-21T06:16:58.297Z,21.31
2023-05-21T06:20:10.882Z,21.60
2023-05-21T06:23:14.200Z,21.54
2023-05-21T06:26:23.361Z,21.61
2023-05-21T06:29:29.623Z,21.72
2023-05-21T06:32:47.274Z,21.63
2023-05-21T06:36:09.228Z,21.67
2023-05-21T06:39:32.217Z,21.81
2023-05-21T06:42:35.491Z,21.92
2023-05-21T06:46:18.736Z,21.95
2023-05-21T06:49:37.264Z,21.86
2023-05-21T06:53:00.192Z,22.31
2023-05-21T06:56:22.243Z,22.42
2023-05-21T06:59:39.319Z,22.36
2023-05-21T07:02:59.333Z,22.41
2023-05-21T07:06:19.282Z,22.44
2023-05-21T07:09:45.161Z,22.50
2023-05-21T07:13:10.233Z,22.75
2023-05-21T07:16:31.201Z,22.58
2023-05-21T07:19:52.214Z,22.95
2023-05-21T07:23:12.147Z,22.97
2023-05-21T07:26:35.244Z,22.96
2023-05-21T07:29:52.346Z,23.16
2023-05-21T07:32:57.752Z,23.01
2023-05-21T07:36:02.350Z,23.01
2023-05-21T07:39:18.605Z,23.43
2023-05-21T07:42:38.044Z,23.42
2023-05-21T07:45:52.988Z,23.56
2023-05-21T07:49:09.055Z,23.39
2023-05-21T07:52:18.738Z,23.51
2023-05-21T07:55:29.398Z,23.39
2023-05-21T07:58:36.550Z,23.45
2023-05-21T08:01:41.140Z,23.64
2023-05-21T08:04:48.904Z,23.70
2023-05-21T08:08:03.085Z,23.78
2023-05-21T08:11:12.687Z,24.03
2023-05-21T08:14:22.635Z,24.04
2023-05-21T08:17:28.697Z,24.07
2023-05-21T08:20:39.432Z,24.02
2023-05-21T08:23:46.403Z,24.00
2023-05-21T08:26:50.767Z,24.31
2023-05-21T08:29:55.465Z,24.39
2023-05-21T08:33:10.535Z,24.49
2023-05-21T08:36:33.922Z,24.56
2023-05-21T08:40:00.095Z,24.43
2023-05-21T08:43:20.874Z,24.64
2023-05-21T08:46:36.580Z,24.71
2023-05-21T08:49:48.158Z,24.36
2023-05-21T08:53:04.067Z,24.33
2023-05-21T08:56:15.579Z,24.35
2023-05-21T08:59:31.348Z,24.66
2023-05-21T09:02:47.076Z,24.66
2023-05-21T09:06:10.831Z,24.85
2023-05-21T09:09:35.758Z,24.91
2023-05-21T09:12:52.892Z,25.24
2023-05-21T09:16:15.829Z,25.06
2023-05-21T09:19:32.690Z,25.21
2023-05-21T09:23:01.834Z,25.46
2023-05-21T09:26:24.532Z,25.35
2023-05-21T09:29:43.855Z,25.37
2023-05-21T09:33:08.512Z,25.24
2023-05-21T09:36:25.972Z,25.20
2023-05-21T09:39:45.373Z,25.64
2023-05-21T09:43:05.931Z,25.71
2023-05-21T09:46:21.782Z,25.74
2023-05-21T09:49:44.786Z,25.68
2023-05-21T09:52:56.249Z,25.92
2023-05-21T09:56:06.217Z,26.06
2023-05-21T09:59:12.359Z,25.89
2023-05-21T10:02:27.176Z,25.88
2023-05-21T10:05:31.088Z,26.19
2023-05-21T10:08:39.666Z,26.09
2023-05-21T10:11:53.702Z,26.43
2023-05-21T10:15:09.935Z,25.85
2023-05-21T10:18:28.165Z,26.20
2023-05-21T10:21:46.441Z,26.33
2023-05-21T10:25:04.705Z,26.51
2023-05-21T10:28:08.723Z,26.35
2023-05-21T10:31:13.877Z,26.63
2023-05-21T10:34:21.836Z,27.23
2023-05-21T10:37:29.733Z,27.05
2023-05-21T10:40:37.376Z,27.03
2023-05-21T10:44:04.592Z,27.13
2023-05-21T10:47:34.878Z,27.87
2023-05-21T10:50:52.624Z,28.05
2023-05-21T10:53:59.690Z,27.61
2023-05-21T10:57:21.834Z,27.66
2023-05-21T11:00:27.023Z,27.50
2023-05-21T11:03:38.083Z,27.52
2023-05-21T11:07:01.680Z,27.36
2023-05-21T11:10:42.658Z,27.46
2023-05-21T11:14:04.651Z,27.40
2023-05-21T11:17:24.678Z,27.42
2023-05-21T11:20:48.561Z,28.06
2023-05-21T11:24:14.632Z,28.09
2023-05-21T11:27:44.965Z,28.37
2023-05-21T11:31:25.215Z,28.11
2023-05-21T11:34:46.823Z,29.22
2023-05-21T11:37:57.140Z,28.58
2023-05-21T11:41:06.248Z,28.92
2023-05-21T11:44:23.556Z,28.88
2023-05-21T11:47:44.720Z,28.50
2023-05-21T11:51:04.689Z,29.12
2023-05-21T11:54:20.998Z,28.40
2023-05-21T11:57:30.840Z,29.09
2023-05-21T12:00:40.251Z,29.39
2023-05-21T12:03:47.774Z,31.28
2023-05-21T12:06:58.556Z,32.54
2023-05-21T12:10:02.374Z,30.55
2023-05-21T12:13:07.189Z,32.01
2023-05-21T12:16:15.072Z,32.82
2023-05-21T12:19:35.520Z,32.55
2023-05-21T12:22:55.564Z,32.08
2023-05-21T12:26:05.554Z,30.49
2023-05-21T12:29:12.772Z,30.15
2023-05-21T12:32:24.444Z,30.80
2023-05-21T12:35:27.816Z,32.30
2023-05-21T12:38:52.413Z,33.51
2023-05-21T12:42:28.391Z,33.20
2023-05-21T12:45:50.511Z,32.61
2023-05-21T12:49:00.002Z,31.16
2023-05-21T12:52:11.168Z,30.02
2023-05-21T12:55:15.108Z,31.89
2023-05-21T12:58:22.401Z,33.76
2023-05-21T13:01:28.908Z,34.13
2023-05-21T13:04:32.197Z,33.86
2023-05-21T13:07:51.236Z,33.31
2023-05-21T13:11:09.493Z,32.46
2023-05-21T13:14:12.443Z,31.94
2023-05-21T13:17:15.930Z,32.58
2023-05-21T13:20:27.481Z,36.04
2023-05-21T13:23:50.315Z,34.19
2023-05-21T13:27:06.669Z,33.50
2023-05-21T13:30:13.257Z,33.67
2023-05-21T13:33:16.858Z,33.99
2023-05-21T13:36:26.304Z,34.57
2023-05-21T13:39:36.131Z,33.64
2023-05-21T13:43:02.292Z,33.51
2023-05-21T13:46:30.326Z,33.43
2023-05-21T13:49:55.271Z,34.88
2023-05-21T13:53:17.389Z,35.29
2023-05-21T13:56:34.030Z,35.84
2023-05-21T13:59:51.223Z,36.41
2023-05-21T14:03:10.760Z,37.74
2023-05-21T14:06:14.183Z,36.75
2023-05-21T14:09:18.411Z,36.99
2023-05-21T14:12:28.733Z,35.74
2023-05-21T14:15:51.204Z,36.70
2023-05-21T14:19:14.233Z,35.06
2023-05-21T14:22:23.791Z,37.02
2023-05-21T14:25:34.583Z,36.53
2023-05-21T14:28:40.868Z,36.24
2023-05-21T14:31:54.451Z,35.38
2023-05-21T14:35:07.240Z,36.84
2023-05-21T14:38:14.363Z,34.59
2023-05-21T14:41:17.350Z,34.40
2023-05-21T14:44:38.901Z,33.89
2023-05-21T14:48:02.119Z,33.36
2023-05-21T14:51:15.833Z,33.42
2023-05-21T14:54:32.302Z,33.04
2023-05-21T14:57:53.657Z,32.55
2023-05-21T15:01:09.358Z,31.79
2023-05-21T15:04:46.167Z,30.93
2023-05-21T15:07:56.872Z,30.16
2023-05-21T15:11:07.807Z,30.31
2023-05-21T15:14:18.574Z,29.71
2023-05-21T15:17:34.413Z,29.47
2023-05-21T15:20:40.654Z,30.15
2023-05-21T15:23:43.521Z,30.53
2023-05-21T15:26:49.323Z,31.14
2023-05-21T15:29:52.752Z,31.22
2023-05-21T15:33:13.091Z,30.94
2023-05-21T15:36:16.055Z,30.50
2023-05-21T15:39:27.582Z,29.99
2023-05-21T15:42:49.934Z,30.55
2023-05-21T15:46:06.345Z,30.02
2023-05-21T15:49:23.240Z,29.41
2023-05-21T15:52:39.254Z,29.09
2023-05-21T15:55:43.635Z,29.45
2023-05-21T15:58:51.397Z,29.98
2023-05-21T16:02:14.952Z,29.30
2023-05-21T16:05:31.391Z,29.50
2023-05-21T16:08:53.991Z,29.30
2023-05-21T16:12:18.147Z,29.54
2023-05-21T16:15:41.954Z,28.85
2023-05-21T16:19:05.028Z,28.74
2023-05-21T16:22:26.960Z,28.85
2023-05-21T16:25:40.288Z,28.57
2023-05-21T16:28:55.898Z,28.40
2023-05-21T16:32:30.100Z,28.53
2023-05-21T16:35:46.618Z,28.31
2023-05-21T16:38:49.604Z,27.91
2023-05-21T16:41:59.791Z,28.33
2023-05-21T16:45:10.922Z,29.08
2023-05-21T16:48:26.915Z,29.29
2023-05-21T16:51:46.519Z,30.35
2023-05-21T16:55:01.851Z,30.46
2023-05-21T16:58:10.636Z,30.87
2023-05-21T17:01:14.895Z,31.10
2023-05-21T17:04:21.454Z,30.92
2023-05-21T17:07:31.520Z,30.90
2023-05-21T17:10:35.103Z,31.00
2023-05-21T17:13:41.993Z,31.32
2023-05-21T17:17:01.868Z,30.83
2023-05-21T17:20:25.843Z,30.54
2023-05-21T17:23:44.522Z,30.33
2023-05-21T17:26:48.199Z,30.17
2023-05-21T17:29:58.274Z,30.15
2023-05-21T17:33:15.209Z,30.58
2023-05-21T17:36:37.715Z,30.23
2023-05-21T17:40:01.756Z,29.70
2023-05-21T17:43:18.877Z,28.88
2023-05-21T17:46:36.842Z,28.35
2023-05-21T17:50:11.709Z,28.28
2023-05-21T17:53:29.054Z,27.98
2023-05-21T17:56:46.557Z,27.71
2023-05-21T18:00:09.751Z,27.46
2023-05-21T18:03:34.854Z,27.40
2023-05-21T18:06:59.682Z,27.20
2023-05-21T18:10:09.761Z,27.07
2023-05-21T18:13:25.933Z,26.90
2023-05-21T18:16:31.683Z,26.72
2023-05-21T18:19:39.240Z,26.48
2023-05-21T18:22:55.944Z,26.34
2023-05-21T18:26:04.019Z,26.20
2023-05-21T18:29:10.919Z,26.16
2023-05-21T18:32:15.356Z,26.08
2023-05-21T18:35:32.042Z,25.99
2023-05-21T18:38:35.550Z,25.82
2023-05-21T18:41:39.866Z,25.76
2023-05-21T18:44:56.688Z,25.61
2023-05-21T18:48:06.731Z,25.55
2023-05-21T18:51:22.552Z,25.48
2023-05-21T18:54:38.820Z,25.37
2023-05-21T18:57:42.311Z,25.26
2023-05-21T19:00:49.127Z,25.13
2023-05-21T19:04:10.707Z,24.94
2023-05-21T19:07:16.030Z,24.80
2023-05-21T19:10:23.836Z,24.76
2023-05-21T19:13:34.347Z,24.69
2023-05-21T19:16:38.673Z,24.56
2023-05-21T19:19:58.600Z,24.42
2023-05-21T19:23:14.489Z,24.31
2023-05-21T19:26:30.930Z,24.07
2023-05-21T19:29:34.318Z,23.81
2023-05-21T19:32:41.047Z,23.71
2023-05-21T19:35:55.611Z,23.66
2023-05-21T19:38:59.059Z,23.43
2023-05-21T19:42:07.717Z,23.69
2023-05-21T19:45:18.199Z,23.49
2023-05-21T19:48:22.336Z,23.69
2023-05-21T19:51:32.957Z,23.59
2023-05-21T19:54:40.056Z,23.50
2023-05-21T19:57:53.738Z,23.44
2023-05-21T20:01:01.033Z,23.33
2023-05-21T20:04:09.571Z,23.30
2023-05-21T20:07:24.552Z,23.22
2023-05-21T20:10:41.116Z,23.16
2023-05-21T20:13:51.373Z,22.99
2023-05-21T20:16:58.587Z,22.87
2023-05-21T20:20:07.692Z,22.72
2023-05-21T20:23:23.783Z,22.55
2023-05-21T20:26:46.502Z,22.41
2023-05-21T20:30:03.776Z,22.25
2023-05-21T20:33:10.214Z,22.12
2023-05-21T20:36:15.484Z,21.93
2023-05-21T20:39:32.581Z,21.68
2023-05-21T20:42:36.634Z,21.53
2023-05-21T20:45:42.120Z,21.67
2023-05-21T20:48:58.491Z,21.95
2023-05-21T20:52:02.770Z,22.07
2023-05-21T20:55:06.532Z,22.15
2023-05-21T20:58:12.942Z,22.19
2023-05-21T21:01:17.717Z,21.88
2023-05-21T21:04:41.405Z,21.96
2023-05-21T21:08:03.434Z,21.70
2023-05-21T21:11:22.341Z,21.73
2023-05-21T21:14:38.410Z,21.57
2023-05-21T21:17:58.447Z,21.84
2023-05-21T21:21:18.387Z,21.69
2023-05-21T21:24:45.352Z,21.84
2023-05-21T21:28:09.398Z,21.76
2023-05-21T21:31:12.529Z,21.47
2023-05-21T21:34:15.611Z,21.41
2023-05-21T21:37:25.546Z,21.22
2023-05-21T21:40:34.777Z,21.37
2023-05-21T21:43:50.173Z,21.48
2023-05-21T21:46:54.980Z,21.35
2023-05-21T21:50:01.828Z,21.40
2023-05-21T21:53:14.520Z,21.03
2023-05-21T21:56:19.005Z,21.22
2023-05-21T21:59:33.315Z,21.28
2023-05-21T22:02:44.059Z,21.31
2023-05-21T22:05:47.215Z,20.87
2023-05-21T22:08:51.387Z,21.05
2023-05-21T22:11:58.476Z,20.98
2023-05-21T22:15:05.904Z,20.79
2023-05-21T22:18:18.460Z,20.77
2023-05-21T22:21:33.357Z,20.82
2023-05-21T22:24:36.983Z,20.78
2023-05-21T22:27:53.078Z,20.79
2023-05-21T22:31:27.168Z,20.80
2023-05-21T22:34:49.286Z,20.83
2023-05-21T22:37:52.373Z,20.77
2023-05-21T22:40:56.362Z,20.59
2023-05-21T22:44:07.066Z,20.51
2023-05-21T22:47:23.114Z,20.88
2023-05-21T22:50:32.994Z,20.71
2023-05-21T22:53:39.857Z,20.81
2023-05-21T22:56:49.381Z,20.75
2023-05-21T22:59:52.272Z,20.67
2023-05-21T23:02:56.622Z,20.61
2023-05-21T23:06:07.907Z,20.55
2023-05-21T23:09:10.841Z,20.41
2023-05-21T23:12:14.629Z,20.14
2023-05-21T23:15:19.464Z,20.35
2023-05-21T23:18:41.127Z,20.42
2023-05-21T23:21:58.988Z,20.49
2023-05-21T23:25:22.028Z,20.07
2023-05-21T23:28:39.915Z,20.31
2023-05-21T23:31:56.972Z,20.37
2023-05-21T23:35:07.839Z,20.22
2023-05-21T23:38:15.124Z,20.43
2023-05-21T23:41:24.005Z,20.52
2023-05-21T23:44:33.570Z,20.48
2023-05-21T23:47:55.994Z,20.03
2023-05-21T23:51:29.916Z,20.19
2023-05-21T23:54:50.050Z,20.17
2023-05-21T23:58:05.846Z,20.06
